Flight Track Log - Related Links

Times and Time Zones

All times are in EDT time to prevent confusion due to time zone crossing. See the N588AC flight status page for this flight to view local times or setup timezone preferences in your user account.

Time Position Orientation Groundspeed Altitude Reporting Facility
EDT Latitude Longitude Course Direction KTS MPH feet Rate Location/Type
Thu 11:50:50 AM 41.5489 -81.7333 345° North 223 257 2,100  Level Cleveland Center
Thu 11:51:17 AM 41.5703 -81.7408 345° North 253 291 2,100  Level Cleveland Center
Thu 11:51:45 AM 41.6117 -81.7603 341° North 271 312 2,100 97 Level Cleveland Center
Thu 11:52:19 AM 41.6375 -81.7922 317° Northwest 260 299 2,200 658 Climbing Cleveland Center
Thu 11:52:58 AM 41.6408 -81.8519 274° West 232 267 2,900 1,161 Climbing Cleveland Center
Thu 11:53:21 AM 41.6386 -81.8808 264° West 244 281 3,400 1,214 Climbing Cleveland Center
Thu 11:54:22 AM 41.6144 -81.9619 248° West 249 287 4,600 1,805 Climbing Cleveland Center
Thu 11:55:24 AM 41.5597 -82.0172 217° Southwest 261 300 7,100 2,758 Climbing Cleveland Center
Thu 11:56:26 AM 41.4867 -82.0222 183° South 264 304 10,300 3,242 Climbing Cleveland Center
Thu 11:57:28 AM 41.4236 -82.0247 182° South 230 265 13,800 2,903 Climbing Cleveland Center
Thu 11:58:30 AM 41.3608 -82.0244 180° South 214 246 16,300 2,032 Climbing Cleveland Center
Thu 11:59:32 AM 41.2944 -82.0250 180° South 235 270 18,000 1,306 Climbing Cleveland Center
Thu 12:00:34 PM 41.2178 -82.0275 181° South 271 312 19,000 968 Climbing Cleveland Center
Thu 12:01:36 PM 41.1353 -82.0289 181° South 293 337 20,000 1,065 Climbing Cleveland Center
Thu 12:02:38 PM 41.0386 -82.0306 181° South 307 353 21,200 1,065 Climbing Cleveland Center
Thu 12:03:40 PM 40.9508 -82.0331 181° South 311 358 22,200 1,016 Climbing Cleveland Center
Thu 12:04:42 PM 40.8694 -82.0644 196° South 305 351 23,300 1,452 Climbing Cleveland Center
Thu 12:05:44 PM 40.7872 -82.1250 209° Southwest 290 334 25,200 1,790 Climbing Cleveland Center
Thu 12:06:46 PM 40.7253 -82.1714 210° Southwest 258 297 27,000 878 Climbing Cleveland Center
Thu 12:07:47 PM 40.6586 -82.2192 209° Southwest 267 307 27,000  Level Cleveland Center
Thu 12:08:46 PM 40.5878 -82.2731 210° Southwest 287 330 27,000  Level Indianapolis Center
Thu 12:09:48 PM 40.5006 -82.2528 170° South 336 387 27,000  Level Indianapolis Center
Thu 12:10:50 PM 40.4094 -82.2000 156° South 351 404 27,000  Level Indianapolis Center
Thu 12:11:51 PM 40.3178 -82.1478 157° South 354 407 27,000  Level Indianapolis Center
Thu 12:12:53 PM 40.2175 -82.0900 156° South 359 413 27,000  Level Indianapolis Center
Thu 12:13:54 PM 40.1261 -82.0350 155° Southeast 361 415 27,000  Level Indianapolis Center
Thu 12:14:56 PM 40.0344 -81.9814 156° South 361 415 27,000  Level Indianapolis Center
Thu 12:15:58 PM 39.9419 -81.9289 156° South 361 415 27,000  Level Indianapolis Center
Thu 12:16:59 PM 39.8508 -81.8761 156° South 359 413 27,000  Level Indianapolis Center
Thu 12:18:01 PM 39.7597 -81.8236 156° South 358 412 27,000  Level Indianapolis Center
Thu 12:19:03 PM 39.6644 -81.7664 155° Southeast 360 414 27,000  Level Indianapolis Center
Thu 12:20:04 PM 39.5722 -81.7161 157° South 359 413 27,000  Level Indianapolis Center
Thu 12:21:06 PM 39.4806 -81.6633 156° South 360 414 27,000  Level Indianapolis Center
Thu 12:22:08 PM 39.3881 -81.6108 156° South 361 415 27,000  Level Indianapolis Center
Thu 12:23:10 PM 39.2778 -81.5478 156° South 359 413 27,000  Level Indianapolis Center
Thu 12:24:11 PM 39.1867 -81.4947 156° South 358 412 27,000  Level Indianapolis Center
Thu 12:25:13 PM 39.0944 -81.4419 156° South 360 414 27,000  Level Indianapolis Center
Thu 12:26:15 PM 39.0022 -81.3903 156° South 359 413 27,000  Level Indianapolis Center
Thu 12:27:16 PM 38.9092 -81.3386 157° South 360 414 27,000  Level Indianapolis Center
Thu 12:28:18 PM 38.8161 -81.2869 157° South 359 413 27,000  Level Indianapolis Center
Thu 12:29:20 PM 38.7228 -81.2336 156° South 361 415 27,000  Level Indianapolis Center
Thu 12:30:22 PM 38.6300 -81.1828 157° South 359 413 27,000  Level Indianapolis Center
Thu 12:31:23 PM 38.5369 -81.1319 157° South 360 414 27,000 -390 Level Indianapolis Center
Thu 12:32:25 PM 38.4428 -81.0794 156° South 364 419 26,200 -968 Descending Indianapolis Center
Thu 12:33:27 PM 38.3453 -81.0267 157° South 376 433 25,000 -1,610 Descending Indianapolis Center
Thu 12:34:28 PM 38.2292 -80.9869 165° South 359 413 22,900 -1,951 Descending Indianapolis Center
Thu 12:35:30 PM 38.1358 -80.9583 166° South 347 399 21,000 -1,790 Descending Indianapolis Center
Thu 12:36:32 PM 38.0450 -80.9569 179° South 327 376 19,200 -1,935 Descending Indianapolis Center
Thu 12:37:34 PM 37.9544 -80.9164 161° South 343 395 17,000 -2,000 Descending Indianapolis Center
Thu 12:38:35 PM 37.8697 -80.8694 156° South 336 387 15,100 -1,512 Descending Indianapolis Center
Thu 12:39:37 PM 37.7758 -80.8281 161° South 318 366 13,900 -1,113 Descending Indianapolis Center
Thu 12:40:39 PM 37.6978 -80.7994 164° South 304 350 12,800 -1,161 Descending Indianapolis Center
Thu 12:41:41 PM 37.6256 -80.7403 147° Southeast 323 372 11,500 -1,306 Descending Indianapolis Center
Thu 12:42:43 PM 37.5611 -80.6731 140° Southeast 313 360 10,100 -1,548 Descending Indianapolis Center
Thu 12:43:45 PM 37.4922 -80.6025 141° Southeast 279 321 8,300 -1,565 Descending Indianapolis Center
Thu 12:44:15 PM 37.4642 -80.5869 156° South 288 331 7,700 -886 Descending Washington Center
Thu 12:45:13 PM 37.4764 -80.4986 80° East 215 247 7,000 -353 Descending Washington Center
Thu 12:46:14 PM 37.5561 -80.4828 North 172 198 7,000 -246 Level Washington Center
Thu 12:47:15 PM 37.5844 -80.5581 295° West 173 199 6,500 -496 Descending Washington Center
Thu 12:48:15 PM 37.5183 -80.5931 203° Southwest 158 182 6,000 -254 Descending Washington Center
Thu 12:49:13 PM 37.4550 -80.6097 192° South 192 221 6,000  Level Washington Center
Thu 12:50:14 PM 37.3997 -80.6322 198° South 203 234 6,000  Level Washington Center
Thu 12:51:14 PM 37.3594 -80.6506 200° South 203 234 6,000 -50 Level Washington Center
Thu 12:52:15 PM 37.3131 -80.6581 187° South 203 234 5,900 -98 Descending Washington Center
Thu 12:54:00 PM 37.2076 -80.4078 115° Southeast  Level Estimated

Login

Don't have an account? Register now (free) for customized features, flight alerts, and more!